sensor_id;sensor_type;location;lat;lon;timestamp;temperature;humidity
26623;DHT22;14254;50.968;5.366;2022-12-22T00:00:46;11.00;99.90
26623;DHT22;14254;50.968;5.366;2022-12-22T00:03:30;11.10;99.90
26623;DHT22;14254;50.968;5.366;2022-12-22T00:06:15;11.00;99.90
26623;DHT22;14254;50.968;5.366;2022-12-22T00:08:59;11.10;99.90
26623;DHT22;14254;50.968;5.366;2022-12-22T00:11:43;11.10;99.90
26623;DHT22;14254;50.968;5.366;2022-12-22T00:14:29;11.10;99.90
26623;DHT22;14254;50.968;5.366;2022-12-22T00:17:23;11.20;99.90
26623;DHT22;14254;50.968;5.366;2022-12-22T00:20:13;11.30;99.90
26623;DHT22;14254;50.968;5.366;2022-12-22T00:22:58;11.30;99.90
26623;DHT22;14254;50.968;5.366;2022-12-22T00:25:42;11.40;99.90
26623;DHT22;14254;50.968;5.366;2022-12-22T00:28:27;11.40;99.90
26623;DHT22;14254;50.968;5.366;2022-12-22T00:31:12;11.30;99.90
26623;DHT22;14254;50.968;5.366;2022-12-22T00:33:57;11.30;99.90
26623;DHT22;14254;50.968;5.366;2022-12-22T00:36:41;11.40;99.90
26623;DHT22;14254;50.968;5.366;2022-12-22T00:39:26;11.50;99.90
26623;DHT22;14254;50.968;5.366;2022-12-22T00:42:09;11.50;99.90
26623;DHT22;14254;50.968;5.366;2022-12-22T00:44:53;11.50;99.90
26623;DHT22;14254;50.968;5.366;2022-12-22T00:47:38;11.50;99.90
26623;DHT22;14254;50.968;5.366;2022-12-22T00:50:28;11.60;99.90
26623;DHT22;14254;50.968;5.366;2022-12-22T00:53:14;11.60;99.90
26623;DHT22;14254;50.968;5.366;2022-12-22T00:55:58;11.40;99.90
26623;DHT22;14254;50.968;5.366;2022-12-22T00:58:42;11.50;99.90
26623;DHT22;14254;50.968;5.366;2022-12-22T01:01:26;11.50;99.90
26623;DHT22;14254;50.968;5.366;2022-12-22T01:04:11;11.60;99.90
26623;DHT22;14254;50.968;5.366;2022-12-22T01:06:56;11.60;99.90
26623;DHT22;14254;50.968;5.366;2022-12-22T01:09:44;11.60;99.90
26623;DHT22;14254;50.968;5.366;2022-12-22T01:12:31;11.50;99.90
26623;DHT22;14254;50.968;5.366;2022-12-22T01:15:18;11.50;99.90
26623;DHT22;14254;50.968;5.366;2022-12-22T01:18:04;11.50;99.90
26623;DHT22;14254;50.968;5.366;2022-12-22T01:20:49;11.40;99.90
26623;DHT22;14254;50.968;5.366;2022-12-22T01:23:35;11.40;99.90
26623;DHT22;14254;50.968;5.366;2022-12-22T01:26:20;11.30;99.90
26623;DHT22;14254;50.968;5.366;2022-12-22T01:29:04;11.20;99.90
26623;DHT22;14254;50.968;5.366;2022-12-22T01:31:48;11.30;99.90
26623;DHT22;14254;50.968;5.366;2022-12-22T01:34:32;11.30;99.90
26623;DHT22;14254;50.968;5.366;2022-12-22T01:37:16;11.30;99.90
26623;DHT22;14254;50.968;5.366;2022-12-22T01:40:01;11.30;99.90
26623;DHT22;14254;50.968;5.366;2022-12-22T01:42:45;11.30;99.90
26623;DHT22;14254;50.968;5.366;2022-12-22T01:45:31;11.30;99.90
26623;DHT22;14254;50.968;5.366;2022-12-22T01:48:17;11.30;99.90
26623;DHT22;14254;50.968;5.366;2022-12-22T01:51:08;11.40;99.90
26623;DHT22;14254;50.968;5.366;2022-12-22T01:53:55;11.40;99.90
26623;DHT22;14254;50.968;5.366;2022-12-22T01:56:40;11.40;99.90
26623;DHT22;14254;50.968;5.366;2022-12-22T01:59:25;11.40;99.90
26623;DHT22;14254;50.968;5.366;2022-12-22T02:02:10;11.40;99.90
26623;DHT22;14254;50.968;5.366;2022-12-22T02:04:57;11.30;99.90
26623;DHT22;14254;50.968;5.366;2022-12-22T02:08:07;11.30;99.90
26623;DHT22;14254;50.968;5.366;2022-12-22T02:11:06;11.30;99.90
26623;DHT22;14254;50.968;5.366;2022-12-22T02:14:48;11.30;99.90
26623;DHT22;14254;50.968;5.366;2022-12-22T02:17:36;11.40;99.90
26623;DHT22;14254;50.968;5.366;2022-12-22T02:20:46;11.40;99.90
26623;DHT22;14254;50.968;5.366;2022-12-22T02:23:50;11.50;99.90
26623;DHT22;14254;50.968;5.366;2022-12-22T02:26:45;11.40;99.90
26623;DHT22;14254;50.968;5.366;2022-12-22T02:29:35;11.50;99.90
26623;DHT22;14254;50.968;5.366;2022-12-22T02:32:23;11.40;99.90
26623;DHT22;14254;50.968;5.366;2022-12-22T02:35:15;11.40;99.90
26623;DHT22;14254;50.968;5.366;2022-12-22T02:44:47;11.40;99.90
26623;DHT22;14254;50.968;5.366;2022-12-22T02:47:57;11.30;99.90
26623;DHT22;14254;50.968;5.366;2022-12-22T02:50:48;11.40;99.90
26623;DHT22;14254;50.968;5.366;2022-12-22T02:53:33;11.40;99.90
26623;DHT22;14254;50.968;5.366;2022-12-22T02:56:18;11.40;99.90
26623;DHT22;14254;50.968;5.366;2022-12-22T02:59:02;11.40;99.90
26623;DHT22;14254;50.968;5.366;2022-12-22T03:01:47;11.40;99.90
26623;DHT22;14254;50.968;5.366;2022-12-22T03:04:31;11.40;99.90
26623;DHT22;14254;50.968;5.366;2022-12-22T03:07:15;11.50;99.90
26623;DHT22;14254;50.968;5.366;2022-12-22T03:09:59;11.50;99.90
26623;DHT22;14254;50.968;5.366;2022-12-22T03:12:43;11.40;99.90
26623;DHT22;14254;50.968;5.366;2022-12-22T03:15:27;11.40;99.90
26623;DHT22;14254;50.968;5.366;2022-12-22T03:18:12;11.50;99.90
26623;DHT22;14254;50.968;5.366;2022-12-22T03:20:57;11.50;99.90
26623;DHT22;14254;50.968;5.366;2022-12-22T03:23:42;11.40;99.90
26623;DHT22;14254;50.968;5.366;2022-12-22T03:26:27;11.30;99.90
26623;DHT22;14254;50.968;5.366;2022-12-22T03:28:53;11.30;99.90
26623;DHT22;14254;50.968;5.366;2022-12-22T03:31:19;11.30;99.90
26623;DHT22;14254;50.968;5.366;2022-12-22T03:33:45;11.20;99.90
26623;DHT22;14254;50.968;5.366;2022-12-22T03:36:10;11.20;99.90
26623;DHT22;14254;50.968;5.366;2022-12-22T03:38:36;11.30;99.90
26623;DHT22;14254;50.968;5.366;2022-12-22T03:41:02;11.40;99.90
26623;DHT22;14254;50.968;5.366;2022-12-22T03:43:28;11.40;99.90
26623;DHT22;14254;50.968;5.366;2022-12-22T03:46:14;11.40;99.90
26623;DHT22;14254;50.968;5.366;2022-12-22T03:49:03;11.40;99.90
26623;DHT22;14254;50.968;5.366;2022-12-22T03:51:46;11.30;99.90
26623;DHT22;14254;50.968;5.366;2022-12-22T03:54:14;11.30;99.90
26623;DHT22;14254;50.968;5.366;2022-12-22T03:56:40;11.40;99.90
26623;DHT22;14254;50.968;5.366;2022-12-22T03:59:06;11.40;99.90
26623;DHT22;14254;50.968;5.366;2022-12-22T04:01:39;11.40;99.90
26623;DHT22;14254;50.968;5.366;2022-12-22T04:04:05;11.40;99.90
26623;DHT22;14254;50.968;5.366;2022-12-22T04:06:31;11.50;99.90
26623;DHT22;14254;50.968;5.366;2022-12-22T04:08:56;11.50;99.90
26623;DHT22;14254;50.968;5.366;2022-12-22T04:11:22;11.50;99.90
26623;DHT22;14254;50.968;5.366;2022-12-22T04:14:06;11.50;99.90
26623;DHT22;14254;50.968;5.366;2022-12-22T04:16:32;11.50;99.90
26623;DHT22;14254;50.968;5.366;2022-12-22T04:18:57;11.50;99.90
26623;DHT22;14254;50.968;5.366;2022-12-22T04:21:23;11.50;99.90
26623;DHT22;14254;50.968;5.366;2022-12-22T04:23:49;11.50;99.90
26623;DHT22;14254;50.968;5.366;2022-12-22T04:26:19;11.50;99.90
26623;DHT22;14254;50.968;5.366;2022-12-22T04:28:45;11.40;99.90
26623;DHT22;14254;50.968;5.366;2022-12-22T04:31:11;11.40;99.90
26623;DHT22;14254;50.968;5.366;2022-12-22T04:33:37;11.30;99.90
26623;DHT22;14254;50.968;5.366;2022-12-22T04:36:03;11.30;99.90
26623;DHT22;14254;50.968;5.366;2022-12-22T04:38:29;11.30;99.90
26623;DHT22;14254;50.968;5.366;2022-12-22T04:40:54;11.30;99.90
26623;DHT22;14254;50.968;5.366;2022-12-22T04:43:20;11.40;99.90
26623;DHT22;14254;50.968;5.366;2022-12-22T04:45:46;11.40;99.90
26623;DHT22;14254;50.968;5.366;2022-12-22T04:48:11;11.40;99.90
26623;DHT22;14254;50.968;5.366;2022-12-22T04:50:37;11.30;99.90
26623;DHT22;14254;50.968;5.366;2022-12-22T04:53:03;11.30;99.90
26623;DHT22;14254;50.968;5.366;2022-12-22T04:55:29;11.30;99.90
26623;DHT22;14254;50.968;5.366;2022-12-22T04:57:54;11.20;99.90
26623;DHT22;14254;50.968;5.366;2022-12-22T05:00:20;11.10;99.90
26623;DHT22;14254;50.968;5.366;2022-12-22T05:02:46;11.10;99.90
26623;DHT22;14254;50.968;5.366;2022-12-22T05:05:11;11.00;99.90
26623;DHT22;14254;50.968;5.366;2022-12-22T05:07:37;10.90;99.90
26623;DHT22;14254;50.968;5.366;2022-12-22T05:10:04;10.90;99.90
26623;DHT22;14254;50.968;5.366;2022-12-22T05:12:29;11.00;99.90
26623;DHT22;14254;50.968;5.366;2022-12-22T05:15:14;10.90;99.90
26623;DHT22;14254;50.968;5.366;2022-12-22T05:17:39;11.10;99.90
26623;DHT22;14254;50.968;5.366;2022-12-22T05:20:05;10.70;99.90
26623;DHT22;14254;50.968;5.366;2022-12-22T05:22:31;10.80;99.90
26623;DHT22;14254;50.968;5.366;2022-12-22T05:24:57;10.90;99.90
26623;DHT22;14254;50.968;5.366;2022-12-22T05:27:23;11.10;99.90
26623;DHT22;14254;50.968;5.366;2022-12-22T05:29:48;11.20;99.90
26623;DHT22;14254;50.968;5.366;2022-12-22T05:32:14;11.20;99.90
26623;DHT22;14254;50.968;5.366;2022-12-22T05:34:39;11.20;99.90
26623;DHT22;14254;50.968;5.366;2022-12-22T05:37:05;11.20;99.90
26623;DHT22;14254;50.968;5.366;2022-12-22T05:39:31;11.30;99.90
26623;DHT22;14254;50.968;5.366;2022-12-22T05:41:56;11.30;99.90
26623;DHT22;14254;50.968;5.366;2022-12-22T05:44:22;11.30;99.90
26623;DHT22;14254;50.968;5.366;2022-12-22T05:46:51;11.30;99.90
26623;DHT22;14254;50.968;5.366;2022-12-22T05:49:17;11.20;99.90
26623;DHT22;14254;50.968;5.366;2022-12-22T05:51:43;11.30;99.90
26623;DHT22;14254;50.968;5.366;2022-12-22T05:54:09;11.30;99.90
26623;DHT22;14254;50.968;5.366;2022-12-22T05:56:35;11.30;99.90
26623;DHT22;14254;50.968;5.366;2022-12-22T05:59:01;11.40;99.90
26623;DHT22;14254;50.968;5.366;2022-12-22T06:01:26;11.20;99.90
26623;DHT22;14254;50.968;5.366;2022-12-22T06:03:52;11.30;99.90
26623;DHT22;14254;50.968;5.366;2022-12-22T06:06:18;11.40;99.90
26623;DHT22;14254;50.968;5.366;2022-12-22T06:08:43;11.50;99.90
26623;DHT22;14254;50.968;5.366;2022-12-22T06:11:09;11.40;99.90
26623;DHT22;14254;50.968;5.366;2022-12-22T06:13:35;11.40;99.90
26623;DHT22;14254;50.968;5.366;2022-12-22T06:16:00;11.50;99.90
26623;DHT22;14254;50.968;5.366;2022-12-22T06:18:26;11.60;99.90
26623;DHT22;14254;50.968;5.366;2022-12-22T06:20:52;11.50;99.90
26623;DHT22;14254;50.968;5.366;2022-12-22T06:23:19;11.60;99.90
26623;DHT22;14254;50.968;5.366;2022-12-22T06:28:20;11.60;99.90
26623;DHT22;14254;50.968;5.366;2022-12-22T06:30:46;11.50;99.90
26623;DHT22;14254;50.968;5.366;2022-12-22T06:33:12;11.50;99.90
26623;DHT22;14254;50.968;5.366;2022-12-22T06:35:38;11.60;99.90
26623;DHT22;14254;50.968;5.366;2022-12-22T06:38:03;11.50;99.90
26623;DHT22;14254;50.968;5.366;2022-12-22T06:40:29;11.60;99.90
26623;DHT22;14254;50.968;5.366;2022-12-22T06:42:55;11.60;99.90
26623;DHT22;14254;50.968;5.366;2022-12-22T06:45:33;11.60;99.90
26623;DHT22;14254;50.968;5.366;2022-12-22T06:47:59;11.50;99.90
26623;DHT22;14254;50.968;5.366;2022-12-22T06:50:25;11.40;99.90
26623;DHT22;14254;50.968;5.366;2022-12-22T06:52:50;11.30;99.90
26623;DHT22;14254;50.968;5.366;2022-12-22T06:55:16;11.00;99.90
26623;DHT22;14254;50.968;5.366;2022-12-22T06:57:42;10.80;99.90
26623;DHT22;14254;50.968;5.366;2022-12-22T07:00:08;10.60;99.90
26623;DHT22;14254;50.968;5.366;2022-12-22T07:02:34;10.50;99.90
26623;DHT22;14254;50.968;5.366;2022-12-22T07:04:59;10.50;99.90
26623;DHT22;14254;50.968;5.366;2022-12-22T07:07:25;10.40;99.90
26623;DHT22;14254;50.968;5.366;2022-12-22T07:09:51;10.40;99.90
26623;DHT22;14254;50.968;5.366;2022-12-22T07:12:16;10.40;99.90
26623;DHT22;14254;50.968;5.366;2022-12-22T07:14:42;10.40;99.90
26623;DHT22;14254;50.968;5.366;2022-12-22T07:17:08;10.30;99.90
26623;DHT22;14254;50.968;5.366;2022-12-22T07:19:33;10.30;99.90
26623;DHT22;14254;50.968;5.366;2022-12-22T07:21:59;10.30;99.90
26623;DHT22;14254;50.968;5.366;2022-12-22T07:24:25;10.20;99.90
26623;DHT22;14254;50.968;5.366;2022-12-22T07:26:51;10.20;99.90
26623;DHT22;14254;50.968;5.366;2022-12-22T07:29:17;10.20;99.90
26623;DHT22;14254;50.968;5.366;2022-12-22T07:31:43;10.20;99.90
26623;DHT22;14254;50.968;5.366;2022-12-22T07:34:08;10.20;99.90
26623;DHT22;14254;50.968;5.366;2022-12-22T07:36:34;10.20;99.90
26623;DHT22;14254;50.968;5.366;2022-12-22T07:39:00;10.20;99.90
26623;DHT22;14254;50.968;5.366;2022-12-22T07:41:25;10.20;99.90
26623;DHT22;14254;50.968;5.366;2022-12-22T07:44:10;10.30;99.90
26623;DHT22;14254;50.968;5.366;2022-12-22T07:46:37;10.20;99.90
26623;DHT22;14254;50.968;5.366;2022-12-22T07:49:06;10.20;99.90
26623;DHT22;14254;50.968;5.366;2022-12-22T07:51:51;10.20;99.90
26623;DHT22;14254;50.968;5.366;2022-12-22T07:54:17;10.10;99.90
26623;DHT22;14254;50.968;5.366;2022-12-22T07:56:44;10.10;99.90
26623;DHT22;14254;50.968;5.366;2022-12-22T07:59:10;10.10;99.90
26623;DHT22;14254;50.968;5.366;2022-12-22T08:01:36;10.10;99.90
26623;DHT22;14254;50.968;5.366;2022-12-22T08:04:02;10.10;99.90
26623;DHT22;14254;50.968;5.366;2022-12-22T08:06:28;10.30;99.90
26623;DHT22;14254;50.968;5.366;2022-12-22T08:08:56;10.30;99.90
26623;DHT22;14254;50.968;5.366;2022-12-22T08:11:22;10.50;99.90
26623;DHT22;14254;50.968;5.366;2022-12-22T08:13:47;10.60;99.90
26623;DHT22;14254;50.968;5.366;2022-12-22T08:16:14;10.80;99.90
26623;DHT22;14254;50.968;5.366;2022-12-22T08:18:41;10.80;99.90
26623;DHT22;14254;50.968;5.366;2022-12-22T08:21:07;10.90;99.90
26623;DHT22;14254;50.968;5.366;2022-12-22T08:23:34;11.00;99.90
26623;DHT22;14254;50.968;5.366;2022-12-22T08:26:22;11.10;99.90
26623;DHT22;14254;50.968;5.366;2022-12-22T08:31:59;11.00;99.90
26623;DHT22;14254;50.968;5.366;2022-12-22T08:34:25;11.10;99.90
26623;DHT22;14254;50.968;5.366;2022-12-22T08:36:54;11.10;99.90
26623;DHT22;14254;50.968;5.366;2022-12-22T08:39:21;11.20;99.90
26623;DHT22;14254;50.968;5.366;2022-12-22T08:41:48;11.20;99.90
26623;DHT22;14254;50.968;5.366;2022-12-22T08:44:14;11.10;99.90
26623;DHT22;14254;50.968;5.366;2022-12-22T08:46:40;11.10;99.90
26623;DHT22;14254;50.968;5.366;2022-12-22T08:49:06;11.20;99.90
26623;DHT22;14254;50.968;5.366;2022-12-22T08:51:32;11.20;99.90
26623;DHT22;14254;50.968;5.366;2022-12-22T08:53:57;11.10;99.90
26623;DHT22;14254;50.968;5.366;2022-12-22T08:56:23;11.00;99.90
26623;DHT22;14254;50.968;5.366;2022-12-22T08:58:49;11.00;99.90
26623;DHT22;14254;50.968;5.366;2022-12-22T09:01:16;11.00;99.90
26623;DHT22;14254;50.968;5.366;2022-12-22T09:03:46;11.00;99.90
26623;DHT22;14254;50.968;5.366;2022-12-22T09:06:11;10.90;99.90
26623;DHT22;14254;50.968;5.366;2022-12-22T09:08:37;10.70;99.90
26623;DHT22;14254;50.968;5.366;2022-12-22T09:11:03;10.60;99.90
26623;DHT22;14254;50.968;5.366;2022-12-22T09:13:29;10.60;99.90
26623;DHT22;14254;50.968;5.366;2022-12-22T09:15:55;10.80;99.90
26623;DHT22;14254;50.968;5.366;2022-12-22T09:18:21;11.00;99.90
26623;DHT22;14254;50.968;5.366;2022-12-22T09:20:52;11.10;99.90
26623;DHT22;14254;50.968;5.366;2022-12-22T09:23:18;10.80;99.90
26623;DHT22;14254;50.968;5.366;2022-12-22T09:25:44;10.60;99.90
26623;DHT22;14254;50.968;5.366;2022-12-22T09:28:09;10.60;99.90
26623;DHT22;14254;50.968;5.366;2022-12-22T09:30:36;10.80;99.90
26623;DHT22;14254;50.968;5.366;2022-12-22T09:33:02;10.80;99.90
26623;DHT22;14254;50.968;5.366;2022-12-22T09:35:28;11.00;99.90
26623;DHT22;14254;50.968;5.366;2022-12-22T09:37:53;11.20;99.90
26623;DHT22;14254;50.968;5.366;2022-12-22T09:40:19;11.20;99.90
26623;DHT22;14254;50.968;5.366;2022-12-22T09:42:46;11.10;99.90
26623;DHT22;14254;50.968;5.366;2022-12-22T09:45:14;11.30;99.90
26623;DHT22;14254;50.968;5.366;2022-12-22T09:47:48;11.40;99.90
26623;DHT22;14254;50.968;5.366;2022-12-22T09:50:20;11.30;99.90
26623;DHT22;14254;50.968;5.366;2022-12-22T09:53:02;11.40;99.90
26623;DHT22;14254;50.968;5.366;2022-12-22T09:55:40;11.50;99.90
26623;DHT22;14254;50.968;5.366;2022-12-22T09:58:29;11.60;99.90
26623;DHT22;14254;50.968;5.366;2022-12-22T10:03:47;11.60;99.90
26623;DHT22;14254;50.968;5.366;2022-12-22T10:09:16;11.60;99.90
26623;DHT22;14254;50.968;5.366;2022-12-22T10:12:03;11.50;99.90
26623;DHT22;14254;50.968;5.366;2022-12-22T10:14:37;11.30;99.90
26623;DHT22;14254;50.968;5.366;2022-12-22T10:17:25;11.10;99.90
26623;DHT22;14254;50.968;5.366;2022-12-22T10:20:24;11.10;99.90
26623;DHT22;14254;50.968;5.366;2022-12-22T10:22:53;11.30;99.90
26623;DHT22;14254;50.968;5.366;2022-12-22T10:25:45;11.30;99.90
26623;DHT22;14254;50.968;5.366;2022-12-22T10:28:30;11.30;99.90
26623;DHT22;14254;50.968;5.366;2022-12-22T10:31:30;11.20;99.90
26623;DHT22;14254;50.968;5.366;2022-12-22T10:34:12;11.20;99.90
26623;DHT22;14254;50.968;5.366;2022-12-22T10:36:38;11.30;99.90
26623;DHT22;14254;50.968;5.366;2022-12-22T10:39:07;11.40;99.90
26623;DHT22;14254;50.968;5.366;2022-12-22T10:41:40;11.40;99.90
26623;DHT22;14254;50.968;5.366;2022-12-22T10:44:27;11.30;99.90
26623;DHT22;14254;50.968;5.366;2022-12-22T10:46:58;11.30;99.90
26623;DHT22;14254;50.968;5.366;2022-12-22T10:49:37;11.30;99.90
26623;DHT22;14254;50.968;5.366;2022-12-22T10:52:15;11.50;99.90
26623;DHT22;14254;50.968;5.366;2022-12-22T10:54:43;11.60;99.90
26623;DHT22;14254;50.968;5.366;2022-12-22T11:02:37;11.50;99.90
26623;DHT22;14254;50.968;5.366;2022-12-22T11:05:09;11.60;99.90
26623;DHT22;14254;50.968;5.366;2022-12-22T11:07:40;11.60;99.90
26623;DHT22;14254;50.968;5.366;2022-12-22T11:10:19;11.50;99.90
26623;DHT22;14254;50.968;5.366;2022-12-22T11:13:01;11.60;99.90
26623;DHT22;14254;50.968;5.366;2022-12-22T11:21:35;11.60;99.90
26623;DHT22;14254;50.968;5.366;2022-12-22T11:24:39;11.70;99.90
26623;DHT22;14254;50.968;5.366;2022-12-22T11:30:19;11.90;99.90
26623;DHT22;14254;50.968;5.366;2022-12-22T11:36:01;11.90;99.90
26623;DHT22;14254;50.968;5.366;2022-12-22T11:38:54;11.90;99.90
26623;DHT22;14254;50.968;5.366;2022-12-22T11:46:54;11.80;99.90
26623;DHT22;14254;50.968;5.366;2022-12-22T11:49:55;11.80;99.90
26623;DHT22;14254;50.968;5.366;2022-12-22T11:58:03;11.90;99.90
26623;DHT22;14254;50.968;5.366;2022-12-22T12:00:46;11.80;99.90
26623;DHT22;14254;50.968;5.366;2022-12-22T12:08:56;11.70;99.90
26623;DHT22;14254;50.968;5.366;2022-12-22T12:12:24;11.80;99.90
26623;DHT22;14254;50.968;5.366;2022-12-22T12:22:53;12.40;99.90
26623;DHT22;14254;50.968;5.366;2022-12-22T12:25:24;12.10;99.90
26623;DHT22;14254;50.968;5.366;2022-12-22T12:28:52;11.70;99.90
26623;DHT22;14254;50.968;5.366;2022-12-22T12:30:59;11.60;99.90
26623;DHT22;14254;50.968;5.366;2022-12-22T12:33:38;11.60;99.90
26623;DHT22;14254;50.968;5.366;2022-12-22T12:44:24;12.40;99.90
26623;DHT22;14254;50.968;5.366;2022-12-22T12:52:09;12.70;99.90
26623;DHT22;14254;50.968;5.366;2022-12-22T12:54:42;13.10;99.90
26623;DHT22;14254;50.968;5.366;2022-12-22T12:57:27;13.00;99.90
26623;DHT22;14254;50.968;5.366;2022-12-22T12:59:58;13.70;99.90
26623;DHT22;14254;50.968;5.366;2022-12-22T13:08:17;14.20;99.90
26623;DHT22;14254;50.968;5.366;2022-12-22T13:13:12;14.30;99.90
26623;DHT22;14254;50.968;5.366;2022-12-22T13:15:40;14.10;99.90
26623;DHT22;14254;50.968;5.366;2022-12-22T13:23:36;15.00;99.90
26623;DHT22;14254;50.968;5.366;2022-12-22T13:26:09;16.00;99.90
26623;DHT22;14254;50.968;5.366;2022-12-22T13:28:39;15.90;99.90
26623;DHT22;14254;50.968;5.366;2022-12-22T13:31:13;14.60;99.90
26623;DHT22;14254;50.968;5.366;2022-12-22T13:33:41;13.80;99.90
26623;DHT22;14254;50.968;5.366;2022-12-22T13:36:17;13.60;99.90
26623;DHT22;14254;50.968;5.366;2022-12-22T13:38:44;13.00;99.90
26623;DHT22;14254;50.968;5.366;2022-12-22T13:41:16;12.80;99.90
26623;DHT22;14254;50.968;5.366;2022-12-22T13:43:45;12.70;99.90
26623;DHT22;14254;50.968;5.366;2022-12-22T13:46:12;12.50;99.90
26623;DHT22;14254;50.968;5.366;2022-12-22T13:48:46;12.30;99.90
26623;DHT22;14254;50.968;5.366;2022-12-22T13:51:28;12.10;99.90
26623;DHT22;14254;50.968;5.366;2022-12-22T13:54:03;12.00;99.90
26623;DHT22;14254;50.968;5.366;2022-12-22T13:56:51;12.00;99.90
26623;DHT22;14254;50.968;5.366;2022-12-22T13:59:40;11.80;99.90
26623;DHT22;14254;50.968;5.366;2022-12-22T14:04:40;11.80;99.90
26623;DHT22;14254;50.968;5.366;2022-12-22T14:07:15;11.60;99.90
26623;DHT22;14254;50.968;5.366;2022-12-22T14:09:46;11.60;99.90
26623;DHT22;14254;50.968;5.366;2022-12-22T14:12:21;11.40;99.90
26623;DHT22;14254;50.968;5.366;2022-12-22T14:14:49;11.00;99.90
26623;DHT22;14254;50.968;5.366;2022-12-22T14:19:49;10.60;99.90
26623;DHT22;14254;50.968;5.366;2022-12-22T14:22:21;10.80;99.90
26623;DHT22;14254;50.968;5.366;2022-12-22T14:24:57;10.70;99.90
26623;DHT22;14254;50.968;5.366;2022-12-22T14:27:48;10.70;99.90
26623;DHT22;14254;50.968;5.366;2022-12-22T14:30:27;10.70;99.90
26623;DHT22;14254;50.968;5.366;2022-12-22T14:32:55;10.70;99.90
26623;DHT22;14254;50.968;5.366;2022-12-22T14:40:32;10.60;99.90
26623;DHT22;14254;50.968;5.366;2022-12-22T14:43:02;10.40;99.90
26623;DHT22;14254;50.968;5.366;2022-12-22T14:45:28;10.40;99.90
26623;DHT22;14254;50.968;5.366;2022-12-22T14:47:54;10.30;99.90
26623;DHT22;14254;50.968;5.366;2022-12-22T14:50:27;10.20;99.90
26623;DHT22;14254;50.968;5.366;2022-12-22T14:52:55;10.30;99.90
26623;DHT22;14254;50.968;5.366;2022-12-22T14:55:36;10.30;99.90
26623;DHT22;14254;50.968;5.366;2022-12-22T15:00:36;10.30;99.90
26623;DHT22;14254;50.968;5.366;2022-12-22T15:05:49;10.40;99.90
26623;DHT22;14254;50.968;5.366;2022-12-22T15:08:41;10.50;99.90
26623;DHT22;14254;50.968;5.366;2022-12-22T15:11:15;10.50;99.90
26623;DHT22;14254;50.968;5.366;2022-12-22T15:13:42;10.30;99.90
26623;DHT22;14254;50.968;5.366;2022-12-22T15:16:13;10.20;99.90
26623;DHT22;14254;50.968;5.366;2022-12-22T15:18:39;10.40;99.90
26623;DHT22;14254;50.968;5.366;2022-12-22T15:21:05;10.50;99.90
26623;DHT22;14254;50.968;5.366;2022-12-22T15:23:31;10.50;99.90
26623;DHT22;14254;50.968;5.366;2022-12-22T15:25:56;10.50;99.90
26623;DHT22;14254;50.968;5.366;2022-12-22T15:28:22;10.40;99.90
26623;DHT22;14254;50.968;5.366;2022-12-22T15:30:48;10.50;99.90
26623;DHT22;14254;50.968;5.366;2022-12-22T15:33:17;10.60;99.90
26623;DHT22;14254;50.968;5.366;2022-12-22T15:35:44;10.70;99.90
26623;DHT22;14254;50.968;5.366;2022-12-22T15:38:15;10.80;99.90
26623;DHT22;14254;50.968;5.366;2022-12-22T15:40:42;10.70;99.90
26623;DHT22;14254;50.968;5.366;2022-12-22T15:43:08;10.70;99.90
26623;DHT22;14254;50.968;5.366;2022-12-22T15:45:34;10.70;99.90
26623;DHT22;14254;50.968;5.366;2022-12-22T15:48:04;10.80;99.90
26623;DHT22;14254;50.968;5.366;2022-12-22T15:50:34;10.90;99.90
26623;DHT22;14254;50.968;5.366;2022-12-22T15:53:00;10.80;99.90
26623;DHT22;14254;50.968;5.366;2022-12-22T15:55:28;11.00;99.90
26623;DHT22;14254;50.968;5.366;2022-12-22T15:57:56;10.90;99.90
26623;DHT22;14254;50.968;5.366;2022-12-22T16:00:23;11.00;99.90
26623;DHT22;14254;50.968;5.366;2022-12-22T16:02:49;11.10;99.90
26623;DHT22;14254;50.968;5.366;2022-12-22T16:05:15;11.10;99.90
26623;DHT22;14254;50.968;5.366;2022-12-22T16:07:42;11.10;99.90
26623;DHT22;14254;50.968;5.366;2022-12-22T16:10:22;11.20;99.90
26623;DHT22;14254;50.968;5.366;2022-12-22T16:12:48;11.20;99.90
26623;DHT22;14254;50.968;5.366;2022-12-22T16:15:20;11.20;99.90
26623;DHT22;14254;50.968;5.366;2022-12-22T16:17:46;11.30;99.90
26623;DHT22;14254;50.968;5.366;2022-12-22T16:20:12;11.30;99.90
26623;DHT22;14254;50.968;5.366;2022-12-22T16:22:38;11.20;99.90
26623;DHT22;14254;50.968;5.366;2022-12-22T16:25:13;11.30;99.90
26623;DHT22;14254;50.968;5.366;2022-12-22T16:27:40;11.30;99.90
26623;DHT22;14254;50.968;5.366;2022-12-22T16:30:09;11.30;99.90
26623;DHT22;14254;50.968;5.366;2022-12-22T16:32:36;11.20;99.90
26623;DHT22;14254;50.968;5.366;2022-12-22T16:37:36;11.20;99.90
26623;DHT22;14254;50.968;5.366;2022-12-22T16:40:02;11.10;99.90
26623;DHT22;14254;50.968;5.366;2022-12-22T16:42:28;11.10;99.90
26623;DHT22;14254;50.968;5.366;2022-12-22T16:44:54;11.10;99.90
26623;DHT22;14254;50.968;5.366;2022-12-22T16:47:23;11.10;99.90
26623;DHT22;14254;50.968;5.366;2022-12-22T16:49:50;11.20;99.90
26623;DHT22;14254;50.968;5.366;2022-12-22T16:52:26;11.10;99.90
26623;DHT22;14254;50.968;5.366;2022-12-22T16:54:52;11.20;99.90
26623;DHT22;14254;50.968;5.366;2022-12-22T16:57:18;11.20;99.90
26623;DHT22;14254;50.968;5.366;2022-12-22T16:59:43;11.20;99.90
26623;DHT22;14254;50.968;5.366;2022-12-22T17:02:27;11.20;99.90
26623;DHT22;14254;50.968;5.366;2022-12-22T17:04:54;11.20;99.90
26623;DHT22;14254;50.968;5.366;2022-12-22T17:07:21;11.20;99.90
26623;DHT22;14254;50.968;5.366;2022-12-22T17:09:51;11.30;99.90
26623;DHT22;14254;50.968;5.366;2022-12-22T17:12:29;11.20;99.90
26623;DHT22;14254;50.968;5.366;2022-12-22T17:14:56;11.30;99.90
26623;DHT22;14254;50.968;5.366;2022-12-22T17:17:22;11.30;99.90
26623;DHT22;14254;50.968;5.366;2022-12-22T17:19:49;11.30;99.90
26623;DHT22;14254;50.968;5.366;2022-12-22T17:22:25;11.40;99.90
26623;DHT22;14254;50.968;5.366;2022-12-22T17:24:54;11.40;99.90
26623;DHT22;14254;50.968;5.366;2022-12-22T17:27:23;11.30;99.90
26623;DHT22;14254;50.968;5.366;2022-12-22T17:29:50;11.30;99.90
26623;DHT22;14254;50.968;5.366;2022-12-22T17:32:19;11.30;99.90
26623;DHT22;14254;50.968;5.366;2022-12-22T17:34:45;11.20;99.90
26623;DHT22;14254;50.968;5.366;2022-12-22T17:37:17;11.30;99.90
26623;DHT22;14254;50.968;5.366;2022-12-22T17:39:44;11.30;99.90
26623;DHT22;14254;50.968;5.366;2022-12-22T17:42:22;11.30;99.90
26623;DHT22;14254;50.968;5.366;2022-12-22T17:44:49;11.40;99.90
26623;DHT22;14254;50.968;5.366;2022-12-22T17:47:17;11.50;99.90
26623;DHT22;14254;50.968;5.366;2022-12-22T17:49:45;11.50;99.90
26623;DHT22;14254;50.968;5.366;2022-12-22T17:52:22;11.60;99.90
26623;DHT22;14254;50.968;5.366;2022-12-22T17:54:50;11.60;99.90